Share

Terry, MT (59349)

Dawson Community (KGDV) Elev 2457 ft | 47.14 °N, 104.81 °W | Change Station

Current weather conditions updated 18 minutes ago

Mostly Cloudy
Mostly Cloudy
54 °F
Feels Like 54 °F
N
15
Wind Variable Wind from ESE
Gusts 20 mph
Sunrise 6:10 AM
Sunset 7:52 PM
Moon Waning Gibbous

Tomorrow is forecast to be Much Warmer than today.

Pressure 29.93 in
Visibility 10.0 miles
Clouds Few 5000 ft
Mostly Cloudy 7000 ft
Dew Point 34 °F
Humidity 47%
Rainfall 0.00 in
Snow Depth Not available.
UV 1 out of 16
Pollen 8.40 out of 12
Air Quality Not available.
Flu Activity Sporadic
METAR KGDV 172355Z AUTO 11013G17KT 10SM FEW050 BKN070 12/01 A2993 RMK AO1 10130 20070 401301040 57017

More Conditions Fewer Conditions

Pressure 29.93 in
Visibility 10.0 miles
Clouds Few 5000 ft
Mostly Cloudy 7000 ft
Dew Point 34 °F
Humidity 47%
Rainfall 0.00 in
Snow Depth Not available.
UV 1 out of 16
Pollen 8.40 out of 12
Air Quality Not available.
Flu Activity Sporadic
METAR KGDV 172355Z AUTO 11013G17KT 10SM FEW050 BKN070 12/01 A2993 RMK AO1 10130 20070 401301040 57017

More Conditions Fewer Conditions

10-Day Forecast

Almanac

Astronomy

Apr. 17, 2014 Rise Set
Actual Time 6:10 AM MDT 7:52 PM MDT
Civil Twilight 5:38 AM MDT 8:24 PM MDT
Nautical Twilight 4:59 AM MDT 9:03 PM MDT
Astronomical Twilight 4:16 AM MDT 9:46 PM MDT
Moon 10:48 PM MDT (4/17) 7:37 AM MDT (4/17)
Length of Visible Light 14h 46m
Length of Day
13h 42m
Tomorrow will be 3m 11s longer.
Waning Gibbous, 92% of the Moon is Illuminated
Today
Waning Gibbous
Apr 22
Last Quarter
Apr 29
New
May 6
First Quarter
May 14
Full

Today's Extremes

State Highs State Lows

Community

  • Morning Light
    Morning Light
  • New Day
    New Day
  • Lake Michigan Sunrise
    Lake Michigan Sunrise
  • sunset from izmir, narlıdere
    sunset from izmir, narlıdere
  • oregon cherry
    oregon cherry

WunderPhotos

Upload Photos

1,702,183 photos uploaded!

WunderBlogs® & News

Nearby

Snow Depth

Station Depth Elevation
Crystal Lake 59 in 6050 ft
Cole Creek 81 in 7850 ft
Rocky Boy 9 in 4700 ft
Burnt Mountain 31 in 5880 ft
Daisy Peak 50 in 7600 ft

Coastal Water Temperatures

Place Temperature
No Stations Reporting

Earthquake Activity

City Distance Mag. Time & Date
No recent earthquake activity has been reported nearby.
Minimum magnitude displayed is 2.5.

Nearby Weather Stations

Station Location Temp. Dew Point Humidity Wind Precip. Elev Updated Type
MesoWest BUFFALO RAPIDS/TERRY , Terry, MT 57 °F 33 °F 41% ESE  at  - 0.00 in / hr 2270 ft 4:45 PM MDT MADIS

Show More Stations Show Fewer Stations

What do you think?

We're not finished. Please let us know what you like, what you don't like, and what you are still missing.